Temperatur/Taupunkt


Hier werden Lufttemperatur und Taupunkttemperatur, getrennt durch "/", in jeweils zwei Ziffern mitgeteilt. Zur Erinnerung: sinkt die Lufttemperatur auf die Taupunkttemperatur, bildet sich Nebel oder feuchter Dunst.

EDDL 270120Z 04005KT CAVOK 11/08 Q1017 NOSIG

Erläuterung:
11/08 Temperatur: 11 Grad C
11/08 Taupunkttemperatur: 8 Grad C

Minustemperaturen werden mit einem "m" gekennzeichnet:
UUEE 280730Z 19005MPS CAVOK 20/m01 Q1019 NOSIG

Home